createdAt,value
2019-03-31T00:02:14.570Z,10.80
2019-03-31T00:07:19.113Z,12.00
2019-03-31T00:12:23.766Z,11.40
2019-03-31T00:17:28.326Z,10.20
2019-03-31T00:22:32.919Z,9.40
2019-03-31T00:27:37.550Z,9.60
2019-03-31T00:32:42.198Z,10.00
2019-03-31T00:37:46.789Z,13.50
2019-03-31T00:42:51.365Z,10.00
2019-03-31T00:47:55.915Z,10.00
2019-03-31T00:53:00.461Z,12.50
2019-03-31T00:58:05.001Z,12.20
2019-03-31T01:03:09.812Z,9.00
2019-03-31T01:08:15.455Z,10.00
2019-03-31T01:13:20.115Z,11.00
2019-03-31T01:18:24.701Z,9.80
2019-03-31T01:23:29.574Z,10.60
2019-03-31T01:28:34.375Z,10.50
2019-03-31T01:33:39.370Z,9.40
2019-03-31T01:38:43.998Z,10.75
2019-03-31T01:43:48.526Z,10.25
2019-03-31T01:48:53.311Z,10.80
2019-03-31T01:53:57.869Z,9.20
2019-03-31T01:59:02.515Z,9.25
2019-03-31T02:04:07.208Z,7.75
2019-03-31T02:09:11.943Z,8.00
2019-03-31T02:14:16.482Z,8.75
2019-03-31T02:19:21.288Z,9.40
2019-03-31T02:24:25.822Z,8.00
2019-03-31T02:29:30.408Z,8.25
2019-03-31T02:34:34.982Z,9.20
2019-03-31T02:39:39.624Z,8.20
2019-03-31T02:44:44.225Z,9.40
2019-03-31T02:49:48.748Z,7.20
2019-03-31T02:54:53.533Z,8.00
2019-03-31T03:00:00.446Z,8.00
2019-03-31T03:05:18.991Z,7.00
2019-03-31T03:10:12.102Z,8.00
2019-03-31T03:15:27.503Z,7.20
2019-03-31T03:20:32.043Z,8.25
2019-03-31T03:25:54.485Z,6.40
2019-03-31T03:30:43.630Z,6.20
2019-03-31T03:35:48.600Z,8.60
2019-03-31T03:40:51.723Z,8.75
2019-03-31T03:45:56.433Z,7.80
2019-03-31T03:51:00.970Z,7.00
2019-03-31T03:56:05.876Z,7.80
2019-03-31T04:01:13.956Z,7.75
2019-03-31T04:06:18.790Z,6.50
2019-03-31T04:11:27.319Z,6.00
2019-03-31T04:16:32.002Z,9.00
2019-03-31T04:21:36.613Z,7.25
2019-03-31T04:26:41.236Z,8.50
2019-03-31T04:31:45.838Z,5.50
2019-03-31T04:36:50.468Z,7.80
2019-03-31T04:41:55.079Z,7.00
2019-03-31T04:46:59.719Z,8.40
2019-03-31T04:52:04.389Z,6.50
2019-03-31T04:57:08.922Z,7.40
2019-03-31T05:02:13.471Z,6.20
2019-03-31T05:07:18.041Z,7.50
2019-03-31T05:12:22.612Z,6.40
2019-03-31T05:17:27.284Z,5.00
2019-03-31T05:22:31.837Z,5.00
2019-03-31T05:27:36.441Z,5.60
2019-03-31T05:32:40.973Z,6.40
2019-03-31T05:37:51.199Z,6.60
2019-03-31T05:42:51.920Z,7.20
2019-03-31T05:47:56.478Z,7.75
2019-03-31T05:53:01.007Z,4.80
2019-03-31T05:58:05.654Z,6.00
2019-03-31T06:03:10.236Z,6.50
2019-03-31T06:08:15.007Z,6.40
2019-03-31T06:13:19.574Z,6.25
2019-03-31T06:18:24.176Z,6.40
2019-03-31T06:23:28.721Z,6.75
2019-03-31T06:28:33.256Z,5.50
2019-03-31T06:33:37.884Z,6.20
2019-03-31T06:38:42.627Z,5.75
2019-03-31T06:43:47.175Z,5.00
2019-03-31T06:48:51.760Z,6.75
2019-03-31T06:53:56.314Z,8.00
2019-03-31T06:59:00.900Z,5.00
2019-03-31T07:04:05.617Z,6.00
2019-03-31T07:09:10.183Z,4.00
2019-03-31T07:14:14.818Z,44.50
2019-03-31T07:19:19.488Z,50.25
2019-03-31T07:24:24.055Z,49.50
2019-03-31T07:29:28.633Z,45.00
2019-03-31T07:34:33.273Z,44.00
2019-03-31T07:42:30.807Z,42.20
2019-03-31T07:47:35.475Z,41.80
2019-03-31T07:52:40.308Z,45.80
2019-03-31T07:57:45.050Z,40.60
2019-03-31T08:02:49.755Z,40.75
2019-03-31T08:07:54.381Z,40.40
2019-03-31T08:12:58.935Z,33.50
2019-03-31T08:18:03.590Z,35.50
2019-03-31T08:23:08.126Z,35.00
2019-03-31T08:28:12.844Z,30.75
2019-03-31T08:33:17.367Z,30.25
2019-03-31T08:38:24.411Z,31.50
2019-03-31T08:43:28.278Z,29.00
2019-03-31T08:48:32.818Z,27.00
2019-03-31T08:53:37.354Z,27.40
2019-03-31T08:58:42.013Z,29.40
2019-03-31T09:03:46.604Z,27.25
2019-03-31T09:08:51.266Z,26.00
2019-03-31T09:13:55.835Z,24.80
2019-03-31T09:19:00.557Z,25.50
2019-03-31T09:24:05.302Z,24.40
2019-03-31T09:29:09.917Z,28.75
2019-03-31T09:34:14.535Z,24.75
2019-03-31T09:39:19.181Z,22.20
2019-03-31T09:44:23.727Z,23.40
2019-03-31T09:49:28.457Z,23.80
2019-03-31T09:54:32.998Z,22.20
2019-03-31T09:59:37.555Z,22.00
2019-03-31T10:04:42.181Z,18.20
2019-03-31T10:09:47.668Z,21.75
2019-03-31T10:14:54.270Z,25.25
2019-03-31T10:19:58.545Z,23.50
2019-03-31T10:25:03.308Z,29.60
2019-03-31T10:30:09.011Z,23.00
2019-03-31T10:35:13.745Z,26.40
2019-03-31T10:40:18.400Z,23.60
2019-03-31T10:45:23.035Z,23.80
2019-03-31T10:50:27.954Z,26.60
2019-03-31T10:55:32.606Z,29.00
2019-03-31T11:00:38.028Z,24.75
2019-03-31T11:05:42.684Z,28.50
2019-03-31T11:10:47.398Z,23.75
2019-03-31T11:15:51.964Z,27.80
2019-03-31T11:20:58.158Z,23.25
2019-03-31T11:26:02.773Z,22.40
2019-03-31T11:31:07.378Z,23.75
2019-03-31T11:36:12.166Z,20.00
2019-03-31T11:41:16.912Z,20.20
2019-03-31T11:46:21.484Z,26.25
2019-03-31T11:51:26.143Z,24.20
2019-03-31T11:56:30.708Z,24.00
2019-03-31T12:01:35.600Z,24.40
2019-03-31T12:06:40.301Z,25.50
2019-03-31T12:11:45.743Z,22.75
2019-03-31T12:16:50.557Z,26.50
2019-03-31T12:21:55.225Z,21.50
2019-03-31T12:26:59.805Z,22.75
2019-03-31T12:32:04.530Z,21.00
2019-03-31T12:37:09.098Z,27.00
2019-03-31T12:42:13.718Z,21.80
2019-03-31T12:47:18.275Z,26.80
2019-03-31T12:52:22.989Z,19.60
2019-03-31T12:57:27.582Z,25.20
2019-03-31T13:02:32.145Z,21.25
2019-03-31T13:07:36.689Z,21.00
2019-03-31T13:12:41.350Z,20.80
2019-03-31T13:17:46.111Z,21.80
2019-03-31T13:22:50.691Z,24.00
2019-03-31T13:27:55.279Z,23.00
2019-03-31T13:33:00.045Z,20.80
2019-03-31T13:38:10.950Z,21.00
2019-03-31T13:43:11.131Z,24.50
2019-03-31T13:48:15.806Z,25.00
2019-03-31T13:53:20.361Z,22.40
2019-03-31T13:58:25.510Z,19.00
2019-03-31T14:03:30.684Z,17.00
2019-03-31T14:08:35.263Z,19.00
2019-03-31T14:13:39.840Z,17.50
2019-03-31T14:18:44.489Z,16.40
2019-03-31T14:23:49.099Z,15.00
2019-03-31T14:28:53.768Z,16.00
2019-03-31T14:33:58.595Z,17.40
2019-03-31T14:39:04.952Z,13.25
2019-03-31T14:44:09.617Z,17.75
2019-03-31T14:49:14.279Z,14.00
2019-03-31T14:54:18.837Z,16.60
2019-03-31T14:59:23.387Z,15.25
2019-03-31T15:04:28.043Z,13.80
2019-03-31T15:09:32.602Z,15.00
2019-03-31T15:14:37.158Z,18.00
2019-03-31T15:19:41.942Z,13.80
2019-03-31T15:24:46.512Z,15.25
2019-03-31T15:29:51.061Z,14.00
2019-03-31T15:34:55.651Z,14.50
2019-03-31T15:40:00.196Z,13.00
2019-03-31T15:45:05.075Z,12.00
2019-03-31T15:50:10.216Z,11.80
2019-03-31T15:55:15.018Z,14.60
2019-03-31T16:00:20.063Z,14.40
2019-03-31T16:05:24.627Z,12.00
2019-03-31T16:10:28.652Z,15.00
2019-03-31T16:15:32.750Z,14.25
2019-03-31T16:20:36.797Z,15.20
2019-03-31T16:25:44.332Z,10.75
2019-03-31T16:30:48.354Z,14.25
2019-03-31T16:35:52.447Z,13.00
2019-03-31T16:40:56.653Z,13.75
2019-03-31T16:46:00.665Z,16.00
2019-03-31T16:51:04.749Z,12.25
2019-03-31T16:56:08.884Z,12.75
2019-03-31T17:01:12.985Z,11.60
2019-03-31T17:06:17.100Z,13.60
2019-03-31T17:11:21.127Z,15.50
2019-03-31T17:16:25.152Z,11.60
2019-03-31T17:21:29.251Z,12.40
2019-03-31T17:26:33.380Z,12.60
2019-03-31T17:31:37.520Z,10.20
2019-03-31T17:36:41.557Z,12.00
2019-03-31T17:41:45.624Z,13.60
2019-03-31T17:46:49.722Z,10.80
2019-03-31T17:51:53.774Z,10.50
2019-03-31T17:56:57.864Z,10.00
2019-03-31T18:02:01.899Z,9.50
2019-03-31T18:07:06.108Z,11.40
2019-03-31T18:12:10.134Z,10.00
2019-03-31T18:17:14.201Z,9.25
2019-03-31T18:22:18.253Z,10.50
2019-03-31T18:27:22.315Z,9.80
2019-03-31T18:32:26.419Z,9.60
2019-03-31T18:37:30.473Z,9.40
2019-03-31T18:42:34.675Z,8.60
2019-03-31T18:47:38.916Z,8.25
2019-03-31T18:52:43.033Z,10.20
2019-03-31T18:58:04.865Z,8.00
2019-03-31T19:03:33.635Z,9.00
2019-03-31T19:08:44.532Z,8.50
2019-03-31T19:14:06.264Z,8.00
2019-03-31T19:19:20.775Z,9.75
2019-03-31T19:25:01.990Z,8.50
2019-03-31T19:30:38.032Z,9.33
2019-03-31T19:36:03.786Z,8.80
2019-03-31T19:41:30.550Z,8.25
2019-03-31T19:46:42.461Z,7.00
2019-03-31T19:52:06.426Z,7.00
2019-03-31T19:57:18.291Z,8.25
2019-03-31T20:02:44.341Z,8.80
2019-03-31T20:08:03.218Z,7.25
2019-03-31T20:13:28.203Z,6.80
2019-03-31T20:18:53.331Z,8.00
2019-03-31T20:24:07.089Z,9.00
2019-03-31T20:29:36.372Z,5.75
2019-03-31T20:35:02.312Z,8.20
2019-03-31T20:40:23.276Z,7.20
2019-03-31T20:45:27.343Z,10.50
2019-03-31T20:50:31.448Z,6.80
2019-03-31T20:55:35.467Z,12.25
2019-03-31T21:00:39.537Z,8.50
2019-03-31T21:05:43.661Z,6.20
2019-03-31T21:10:47.678Z,7.25
2019-03-31T21:15:51.719Z,5.75
2019-03-31T21:20:55.775Z,6.00
2019-03-31T21:25:59.865Z,6.25
2019-03-31T21:31:03.976Z,7.00
2019-03-31T21:36:08.002Z,5.50
2019-03-31T21:41:14.146Z,5.00
2019-03-31T21:46:18.051Z,4.40
2019-03-31T21:51:22.152Z,6.80
2019-03-31T21:56:26.249Z,6.80
2019-03-31T22:01:31.570Z,6.00
2019-03-31T22:06:35.800Z,4.00
2019-03-31T22:11:39.844Z,7.00
2019-03-31T22:16:44.122Z,4.40
2019-03-31T22:21:48.348Z,7.20
2019-03-31T22:26:52.466Z,5.25
2019-03-31T22:31:56.611Z,6.75
2019-03-31T22:37:01.662Z,6.25
2019-03-31T22:42:05.850Z,4.75
2019-03-31T22:47:09.982Z,5.40
2019-03-31T22:52:12.962Z,4.75
2019-03-31T22:57:15.895Z,5.00
2019-03-31T23:02:20.283Z,4.00
2019-03-31T23:07:24.470Z,6.40
2019-03-31T23:12:28.622Z,5.60
2019-03-31T23:17:32.824Z,7.60
2019-03-31T23:22:36.924Z,4.25
2019-03-31T23:27:40.955Z,6.00
2019-03-31T23:32:45.002Z,6.40
2019-03-31T23:37:49.086Z,5.75
2019-03-31T23:42:53.163Z,3.00
2019-03-31T23:47:57.229Z,3.40
2019-03-31T23:53:01.248Z,4.20
2019-03-31T23:58:04.239Z,4.20
